Mountain Home, Idaho
Current Conditions -  °F | °C
As of 1:58 PM on Thursday 23 Oct 2014 (Local Time) from KMUO Reporting Station
Overcast Overcast  
Wind Chill: 62°   Ceiling: 9000
Heat Index: 62°   Visibility: 10mi
Dew Point: 42°   Wind: 6mph
Humidity: 47%   Direction: 100°E
Pressure: 30.03"   Gusts: NA
Location:  43.13°N, 115.69°W
Report Text: KMUO 231958Z 10005KT 10SM FEW070 BKN090 OVC130 17/06 A3003 RMK AO2A SLP159 T01690055
Loading
Personal Weather Stations






























Interactive Weather Map
Tropical Storm Tracking
New forecast layout! Learn more

10-Day Weather Forecast

Advertisements
Track Severe Weather on mobile